Time;durP1;ratioP1;P1;durP2;ratioP2;P2;SDS_P1;SDS_P2;PMS_P1;PMS_P2;Temp;Humidity;BMP_temperature;BMP_pressure;BME280_temperature;BME280_humidity;BME280_pressure;Samples;Min_cycle;Max_cycle;Signal;HPM_P1;HPM_P2
2021/07/27 00:00:08;;;;;;;8.18;5.57;;;;;;;;;;5072648;28;20510;-61
2021/07/27 00:02:33;;;;;;;7.20;5.72;;;;;;;;;;5071465;28;20471;-61
2021/07/27 00:04:58;;;;;;;6.03;5.43;;;;;;;;;;5069672;28;20368;-62
2021/07/27 00:07:23;;;;;;;11.85;5.22;;;;;;;;;;5058555;28;20020;-61
2021/07/27 00:09:48;;;;;;;7.07;6.38;;;;;;;;;;5052830;28;20105;-62
2021/07/27 00:12:14;;;;;;;8.43;5.47;;;;;;;;;;5052477;28;20103;-61
2021/07/27 00:14:39;;;;;;;8.98;5.78;;;;;;;;;;5055681;28;20068;-62
2021/07/27 00:17:04;;;;;;;10.55;5.95;;;;;;;;;;5060087;28;20021;-62
2021/07/27 00:19:29;;;;;;;8.43;5.38;;;;;;;;;;5072448;28;20021;-62
2021/07/27 00:21:54;;;;;;;9.25;5.53;;;;;;;;;;5072449;28;20024;-62
2021/07/27 00:24:25;;;;;;;5.72;5.15;;;;;;;;;;5069624;28;20028;-62
2021/07/27 00:26:51;;;;;;;7.40;4.78;;;;;;;;;;5071940;28;20063;-62
2021/07/27 00:29:16;;;;;;;5.97;5.38;;;;;;;;;;5071746;28;20058;-62
2021/07/27 00:31:41;;;;;;;9.43;5.15;;;;;;;;;;5059959;28;20082;-62
2021/07/27 00:34:06;;;;;;;4.95;4.50;;;;;;;;;;5058333;28;20031;-61
2021/07/27 00:36:31;;;;;;;6.47;4.63;;;;;;;;;;5063427;28;20025;-61
2021/07/27 00:38:57;;;;;;;6.03;4.88;;;;;;;;;;5056067;28;20033;-62
2021/07/27 00:41:22;;;;;;;8.18;4.88;;;;;;;;;;5052218;28;20025;-62
2021/07/27 00:43:47;;;;;;;6.53;4.53;;;;;;;;;;5049353;28;20028;-62
2021/07/27 00:46:12;;;;;;;5.97;4.55;;;;;;;;;;5060569;28;20024;-62
2021/07/27 00:48:38;;;;;;;7.55;5.20;;;;;;;;;;5057632;28;20024;-62
2021/07/27 00:51:03;;;;;;;5.85;4.68;;;;;;;;;;5057391;28;20033;-62
2021/07/27 00:53:29;;;;;;;6.93;5.00;;;;;;;;;;5069542;28;20099;-62
2021/07/27 00:55:54;;;;;;;6.50;4.82;;;;;;;;;;5070540;28;20020;-62
2021/07/27 00:58:19;;;;;;;7.63;4.60;;;;;;;;;;5071525;28;20165;-62
2021/07/27 01:00:44;;;;;;;7.07;5.07;;;;;;;;;;5061868;28;20432;-61
2021/07/27 01:03:10;;;;;;;7.05;5.07;;;;;;;;;;5070529;28;20532;-62
2021/07/27 01:05:35;;;;;;;6.00;4.85;;;;;;;;;;5065752;28;20017;-61
2021/07/27 01:08:00;;;;;;;5.97;4.90;;;;;;;;;;5052150;28;20515;-61
2021/07/27 01:10:25;;;;;;;6.72;4.53;;;;;;;;;;5057403;28;20107;-62
2021/07/27 01:12:51;;;;;;;8.10;5.70;;;;;;;;;;5072285;28;20418;-61
2021/07/27 01:15:16;;;;;;;7.22;5.10;;;;;;;;;;5062572;28;20021;-62
2021/07/27 01:17:42;;;;;;;7.95;5.20;;;;;;;;;;5076196;28;20414;-61
2021/07/27 01:44:27;;;;;;;5.78;4.35;;;;;;;;;;5054690;28;20058;-62
2021/07/27 01:46:52;;;;;;;6.85;4.43;;;;;;;;;;5055740;28;20112;-62
2021/07/27 01:49:18;;;;;;;7.32;4.75;;;;;;;;;;5055859;28;20024;-62
2021/07/27 01:51:43;;;;;;;6.60;5.45;;;;;;;;;;5073742;28;20109;-61
2021/07/27 01:54:12;;;;;;;7.38;4.97;;;;;;;;;;5059815;28;20446;-62
2021/07/27 01:56:38;;;;;;;6.93;4.88;;;;;;;;;;5074886;28;20495;-62
2021/07/27 01:59:03;;;;;;;6.22;4.75;;;;;;;;;;5070465;28;20038;-61
2021/07/27 02:01:28;;;;;;;7.18;4.78;;;;;;;;;;5075658;28;20040;-61
2021/07/27 02:03:56;;;;;;;6.07;4.65;;;;;;;;;;5071200;28;20414;-61
2021/07/27 02:06:22;;;;;;;6.85;4.60;;;;;;;;;;5074713;28;20386;-61
2021/07/27 02:08:47;;;;;;;6.40;5.53;;;;;;;;;;5075107;28;20117;-62
2021/07/27 02:11:18;;;;;;;6.43;4.97;;;;;;;;;;5075020;28;20474;-62
2021/07/27 02:13:48;;;;;;;7.68;5.03;;;;;;;;;;5054905;28;20112;-62
2021/07/27 02:16:14;;;;;;;8.55;4.40;;;;;;;;;;5068902;28;20048;-62
2021/07/27 02:18:39;;;;;;;4.85;3.92;;;;;;;;;;5074214;28;20056;-62
2021/07/27 02:21:05;;;;;;;4.65;4.10;;;;;;;;;;5074059;28;20073;-63
2021/07/27 02:23:30;;;;;;;5.45;3.90;;;;;;;;;;5071294;28;20073;-63
2021/07/27 02:25:55;;;;;;;4.00;3.70;;;;;;;;;;5074307;28;20024;-62
2021/07/27 02:28:20;;;;;;;6.43;4.95;;;;;;;;;;5073987;28;20025;-62
2021/07/27 02:30:53;;;;;;;5.75;4.43;;;;;;;;;;5055386;28;20494;-62
2021/07/27 02:33:18;;;;;;;5.85;4.45;;;;;;;;;;5067286;28;20036;-63
2021/07/27 02:35:44;;;;;;;5.60;4.72;;;;;;;;;;5074400;28;20020;-62
2021/07/27 02:38:10;;;;;;;7.45;4.70;;;;;;;;;;5074144;28;20029;-62
2021/07/27 02:40:36;;;;;;;5.47;4.18;;;;;;;;;;5074448;28;20012;-62
2021/07/27 02:43:03;;;;;;;4.22;3.80;;;;;;;;;;5071454;28;20531;-62
2021/07/27 02:45:28;;;;;;;6.07;4.50;;;;;;;;;;5072366;28;20078;-62
2021/07/27 02:47:54;;;;;;;6.63;3.92;;;;;;;;;;5073626;28;20056;-62
2021/07/27 02:50:19;;;;;;;5.85;4.25;;;;;;;;;;5074339;28;20627;-62
2021/07/27 02:52:44;;;;;;;5.88;4.00;;;;;;;;;;5066527;28;20028;-62
2021/07/27 02:55:10;;;;;;;5.03;4.57;;;;;;;;;;5051296;28;20468;-62
2021/07/27 02:57:35;;;;;;;5.53;4.70;;;;;;;;;;5072312;28;20052;-62
2021/07/27 03:00:01;;;;;;;5.13;4.63;;;;;;;;;;5073576;28;20021;-61
2021/07/27 03:02:29;;;;;;;5.82;4.45;;;;;;;;;;5064721;28;20021;-62
2021/07/27 03:04:54;;;;;;;6.18;4.88;;;;;;;;;;5069391;28;20071;-61
2021/07/27 03:07:20;;;;;;;5.78;5.03;;;;;;;;;;5074024;28;20264;-62
2021/07/27 03:12:29;;;;;;;7.93;4.68;;;;;;;;;;5073402;28;20027;-61
2021/07/27 03:15:02;;;;;;;5.63;4.80;;;;;;;;;;5071125;28;20024;-62
2021/07/27 03:17:27;;;;;;;7.00;4.40;;;;;;;;;;5070603;28;20021;-62
2021/07/27 03:19:52;;;;;;;4.88;4.47;;;;;;;;;;5073319;28;20360;-62
2021/07/27 03:22:18;;;;;;;4.32;3.88;;;;;;;;;;5065187;28;20063;-61
2021/07/27 03:24:43;;;;;;;4.15;3.53;;;;;;;;;;5050872;28;20024;-63
2021/07/27 03:27:08;;;;;;;4.18;3.78;;;;;;;;;;5069112;28;20024;-62
2021/07/27 03:29:34;;;;;;;6.82;3.88;;;;;;;;;;5073546;28;20048;-60
2021/07/27 03:31:59;;;;;;;5.57;3.70;;;;;;;;;;5072576;28;20039;-62
2021/07/27 03:34:24;;;;;;;3.90;3.55;;;;;;;;;;5070147;28;20070;-61
2021/07/27 03:36:50;;;;;;;4.78;3.55;;;;;;;;;;5072328;28;20029;-62
2021/07/27 03:39:16;;;;;;;5.28;3.03;;;;;;;;;;5072145;28;20463;-61
2021/07/27 03:41:41;;;;;;;4.30;3.10;;;;;;;;;;5071932;28;20020;-62
2021/07/27 03:44:07;;;;;;;7.45;2.95;;;;;;;;;;5069680;28;20025;-62
2021/07/27 03:46:32;;;;;;;3.08;2.78;;;;;;;;;;5072805;28;20032;-62
2021/07/27 03:48:58;;;;;;;5.13;3.25;;;;;;;;;;5073395;28;20024;-62
2021/07/27 03:51:23;;;;;;;5.65;3.00;;;;;;;;;;5072368;28;20013;-62
2021/07/27 03:53:48;;;;;;;3.97;3.08;;;;;;;;;;5069727;28;20532;-62
2021/07/27 03:56:13;;;;;;;3.38;2.90;;;;;;;;;;5062845;28;20496;-61
2021/07/27 03:58:38;;;;;;;4.15;3.30;;;;;;;;;;5051535;28;20055;-61
2021/07/27 04:01:04;;;;;;;5.10;3.65;;;;;;;;;;5062755;28;20017;-61
2021/07/27 04:03:30;;;;;;;3.67;3.30;;;;;;;;;;5069821;28;20419;-62
2021/07/27 04:05:56;;;;;;;4.43;2.88;;;;;;;;;;5071847;28;20025;-61
2021/07/27 04:08:21;;;;;;;5.10;2.92;;;;;;;;;;5071950;28;20032;-62
2021/07/27 04:10:46;;;;;;;4.25;3.15;;;;;;;;;;5072256;28;20066;-61
2021/07/27 04:13:11;;;;;;;4.60;2.60;;;;;;;;;;5062894;28;20096;-61
2021/07/27 04:15:36;;;;;;;3.33;3.03;;;;;;;;;;5053969;28;20025;-60
2021/07/27 04:18:02;;;;;;;3.70;3.03;;;;;;;;;;5071250;28;20630;-60
2021/07/27 04:20:27;;;;;;;3.25;2.95;;;;;;;;;;5072549;28;20274;-62
2021/07/27 04:22:52;;;;;;;3.50;2.50;;;;;;;;;;5067401;28;20024;-61
2021/07/27 04:25:17;;;;;;;3.33;2.75;;;;;;;;;;5060642;28;20073;-61
2021/07/27 04:27:43;;;;;;;5.00;3.15;;;;;;;;;;5071105;28;20455;-61
2021/07/27 04:30:08;;;;;;;5.65;2.58;;;;;;;;;;5066331;28;20032;-61
2021/07/27 04:32:33;;;;;;;3.40;2.80;;;;;;;;;;5071958;28;20029;-61
2021/07/27 04:34:58;;;;;;;5.35;3.70;;;;;;;;;;5069224;28;20026;-63
2021/07/27 04:37:24;;;;;;;5.05;4.55;;;;;;;;;;5071086;28;20064;-62
2021/07/27 04:39:50;;;;;;;6.47;3.05;;;;;;;;;;5072196;28;20410;-61
2021/07/27 04:42:15;;;;;;;5.43;3.15;;;;;;;;;;5070034;28;20047;-60
2021/07/27 04:44:41;;;;;;;3.85;2.90;;;;;;;;;;5060122;28;20044;-60
2021/07/27 04:47:06;;;;;;;3.35;3.00;;;;;;;;;;5071860;28;20027;-61
2021/07/27 04:49:31;;;;;;;4.95;3.33;;;;;;;;;;5071230;28;20028;-60
2021/07/27 04:51:56;;;;;;;5.82;2.65;;;;;;;;;;5070161;28;20028;-62
2021/07/27 04:54:29;;;;;;;3.20;2.90;;;;;;;;;;5068380;28;20494;-62
2021/07/27 04:56:54;;;;;;;4.35;3.00;;;;;;;;;;5068145;28;20295;-62
2021/07/27 04:59:21;;;;;;;3.70;3.35;;;;;;;;;;5070340;28;20515;-61
2021/07/27 05:01:46;;;;;;;5.82;3.00;;;;;;;;;;5071432;28;20021;-62
2021/07/27 05:04:11;;;;;;;4.05;2.80;;;;;;;;;;5063463;28;20021;-61
2021/07/27 05:06:39;;;;;;;4.57;3.30;;;;;;;;;;5052021;28;20063;-61
2021/07/27 05:09:05;;;;;;;4.07;2.75;;;;;;;;;;5053945;28;20527;-62
2021/07/27 05:11:30;;;;;;;3.80;3.03;;;;;;;;;;5069685;28;20108;-62
2021/07/27 05:13:55;;;;;;;4.90;2.80;;;;;;;;;;5067778;28;20021;-61
2021/07/27 05:16:21;;;;;;;4.68;3.35;;;;;;;;;;5069416;28;20028;-61
2021/07/27 05:18:46;;;;;;;4.00;3.10;;;;;;;;;;5067854;28;20047;-62
2021/07/27 05:21:12;;;;;;;4.70;2.88;;;;;;;;;;5067311;28;20104;-62
2021/07/27 05:23:37;;;;;;;5.35;3.60;;;;;;;;;;5067015;28;20035;-61
2021/07/27 05:26:05;;;;;;;3.37;2.47;;;;;;;;;;5070096;28;20024;-61
2021/07/27 05:28:30;;;;;;;3.78;2.85;;;;;;;;;;5070528;28;20676;-61
2021/07/27 05:30:56;;;;;;;4.53;3.00;;;;;;;;;;5071515;28;20024;-61
2021/07/27 05:33:22;;;;;;;4.70;2.88;;;;;;;;;;5068384;28;20296;-62
2021/07/27 05:35:47;;;;;;;2.53;2.28;;;;;;;;;;5058967;28;20367;-62
2021/07/27 05:38:12;;;;;;;3.60;2.83;;;;;;;;;;5062514;28;20025;-62
2021/07/27 05:40:37;;;;;;;5.50;3.05;;;;;;;;;;5071370;28;20024;-62
2021/07/27 05:43:02;;;;;;;3.45;2.78;;;;;;;;;;5077678;28;20406;-62
2021/07/27 05:45:28;;;;;;;4.67;3.40;;;;;;;;;;5068340;28;20464;-61
2021/07/27 05:47:53;;;;;;;3.08;2.50;;;;;;;;;;5071366;28;20274;-61
2021/07/27 05:50:19;;;;;;;5.00;2.85;;;;;;;;;;5070906;28;20032;-61
2021/07/27 05:52:44;;;;;;;3.60;2.90;;;;;;;;;;5073677;28;20016;-61
2021/07/27 05:55:10;;;;;;;2.88;2.58;;;;;;;;;;5057983;28;20029;-62
2021/07/27 05:57:35;;;;;;;3.38;2.85;;;;;;;;;;5052045;28;20045;-62
2021/07/27 06:00:00;;;;;;;4.18;3.15;;;;;;;;;;5077471;28;20030;-62
2021/07/27 06:02:26;;;;;;;3.50;2.78;;;;;;;;;;5087993;28;20017;-62
2021/07/27 06:04:51;;;;;;;3.35;3.05;;;;;;;;;;5071834;28;20028;-61
2021/07/27 06:07:17;;;;;;;5.22;3.30;;;;;;;;;;5074928;28;20467;-62
2021/07/27 06:09:42;;;;;;;3.15;2.88;;;;;;;;;;5060307;28;20036;-62
2021/07/27 06:12:07;;;;;;;4.88;2.70;;;;;;;;;;5058638;28;20040;-62
2021/07/27 06:14:33;;;;;;;6.57;2.50;;;;;;;;;;5068203;28;20017;-62
2021/07/27 06:16:58;;;;;;;2.60;2.40;;;;;;;;;;5074766;28;20028;-61
2021/07/27 06:19:25;;;;;;;2.40;2.20;;;;;;;;;;5074000;28;20095;-61
2021/07/27 06:21:50;;;;;;;2.85;2.30;;;;;;;;;;5070478;28;20073;-61
2021/07/27 06:24:17;;;;;;;3.20;2.60;;;;;;;;;;5066881;28;20480;-62
2021/07/27 06:26:42;;;;;;;2.80;2.50;;;;;;;;;;5066275;28;20525;-62
2021/07/27 06:29:08;;;;;;;2.47;2.20;;;;;;;;;;5071268;28;20071;-62
2021/07/27 06:31:33;;;;;;;2.30;2.10;;;;;;;;;;5074115;28;20145;-62
2021/07/27 06:33:58;;;;;;;2.90;2.57;;;;;;;;;;5071557;28;20024;-62
2021/07/27 06:36:24;;;;;;;4.07;2.30;;;;;;;;;;5062848;28;20347;-62
2021/07/27 06:38:49;;;;;;;3.28;2.13;;;;;;;;;;5067383;28;20380;-62
2021/07/27 06:41:14;;;;;;;2.77;2.20;;;;;;;;;;5072781;28;20021;-62
2021/07/27 06:43:41;;;;;;;2.50;2.25;;;;;;;;;;5071240;28;20582;-61
2021/07/27 06:46:06;;;;;;;2.50;2.30;;;;;;;;;;5073961;28;20017;-61
2021/07/27 06:48:32;;;;;;;3.53;2.40;;;;;;;;;;5072137;28;20043;-61
2021/07/27 06:50:57;;;;;;;2.30;1.80;;;;;;;;;;5055196;28;20021;-62
2021/07/27 06:53:26;;;;;;;2.75;2.25;;;;;;;;;;5051528;28;20539;-62
2021/07/27 06:55:51;;;;;;;2.30;2.10;;;;;;;;;;5054420;28;20058;-61
2021/07/27 06:58:17;;;;;;;2.55;2.35;;;;;;;;;;5069004;28;20028;-62
2021/07/27 07:00:42;;;;;;;2.03;1.92;;;;;;;;;;5072846;28;20021;-61
2021/07/27 07:03:07;;;;;;;2.22;1.70;;;;;;;;;;5072057;28;20029;-62
2021/07/27 07:05:33;;;;;;;2.88;1.77;;;;;;;;;;5071415;28;20078;-61
2021/07/27 07:07:58;;;;;;;2.70;2.50;;;;;;;;;;5073586;28;20081;-62
2021/07/27 07:10:23;;;;;;;2.53;2.00;;;;;;;;;;5057919;28;20078;-62
2021/07/27 07:12:48;;;;;;;2.67;1.95;;;;;;;;;;5073025;28;20360;-62
2021/07/27 07:15:14;;;;;;;2.35;2.03;;;;;;;;;;5069976;28;20390;-61
2021/07/27 07:17:39;;;;;;;3.30;1.80;;;;;;;;;;5068240;28;20052;-62
2021/07/27 07:20:05;;;;;;;2.00;1.80;;;;;;;;;;5068988;28;20028;-61
2021/07/27 07:22:30;;;;;;;2.10;1.75;;;;;;;;;;5071770;28;20262;-61
2021/07/27 07:24:55;;;;;;;5.47;2.30;;;;;;;;;;5064380;28;20485;-62
2021/07/27 07:27:21;;;;;;;2.17;1.80;;;;;;;;;;5064962;28;20025;-60
2021/07/27 07:29:46;;;;;;;3.00;2.00;;;;;;;;;;5073151;28;20412;-61
2021/07/27 07:32:11;;;;;;;1.98;1.75;;;;;;;;;;5067788;28;20070;-61
2021/07/27 07:34:36;;;;;;;4.88;1.75;;;;;;;;;;5070245;28;20095;-60
2021/07/27 07:37:03;;;;;;;3.90;2.00;;;;;;;;;;5070955;28;20027;-59
2021/07/27 07:39:29;;;;;;;2.42;2.17;;;;;;;;;;5067751;28;20027;-60
2021/07/27 07:41:55;;;;;;;3.33;2.10;;;;;;;;;;5072865;28;20012;-61
2021/07/27 07:44:20;;;;;;;1.92;1.80;;;;;;;;;;5064621;28;20024;-61
2021/07/27 07:46:45;;;;;;;2.05;1.85;;;;;;;;;;5055788;28;20048;-60
2021/07/27 07:49:10;;;;;;;1.85;1.70;;;;;;;;;;5064041;28;20025;-60
2021/07/27 07:51:40;;;;;;;5.32;2.10;;;;;;;;;;5072649;28;20020;-60
2021/07/27 07:54:05;;;;;;;2.05;1.80;;;;;;;;;;5069994;28;20467;-61
2021/07/27 07:56:31;;;;;;;1.70;1.57;;;;;;;;;;5072102;28;20044;-61
2021/07/27 07:58:56;;;;;;;3.47;1.63;;;;;;;;;;5077791;28;20286;-61
2021/07/27 08:01:21;;;;;;;2.50;1.97;;;;;;;;;;5064180;28;20272;-61
2021/07/27 08:03:46;;;;;;;1.73;1.63;;;;;;;;;;5055567;28;20259;-61
2021/07/27 08:06:11;;;;;;;1.73;1.63;;;;;;;;;;5072758;28;20281;-62
2021/07/27 08:08:38;;;;;;;2.10;1.90;;;;;;;;;;5064885;28;20303;-68
2021/07/27 08:11:04;;;;;;;1.63;1.52;;;;;;;;;;5065863;28;20016;-65
2021/07/27 08:13:29;;;;;;;2.85;1.80;;;;;;;;;;5067684;28;20395;-65
2021/07/27 08:15:54;;;;;;;1.73;1.63;;;;;;;;;;5072165;28;20028;-65
2021/07/27 08:18:20;;;;;;;1.75;1.60;;;;;;;;;;5072656;28;20275;-65
2021/07/27 08:20:45;;;;;;;3.20;1.98;;;;;;;;;;5065717;28;20075;-65
2021/07/27 08:23:10;;;;;;;2.07;1.60;;;;;;;;;;5059412;28;20581;-64
2021/07/27 08:25:36;;;;;;;1.97;1.77;;;;;;;;;;5070551;28;20729;-64
2021/07/27 08:28:01;;;;;;;2.10;1.90;;;;;;;;;;5054079;28;20308;-63
2021/07/27 08:30:27;;;;;;;3.13;1.93;;;;;;;;;;5068704;28;20279;-65
2021/07/27 08:32:53;;;;;;;1.90;1.58;;;;;;;;;;5071972;28;20660;-65
2021/07/27 08:35:19;;;;;;;2.08;1.85;;;;;;;;;;5068988;28;20086;-65
2021/07/27 08:37:45;;;;;;;2.75;1.60;;;;;;;;;;5070243;28;20032;-64
2021/07/27 08:40:10;;;;;;;2.58;1.90;;;;;;;;;;5069731;28;20016;-65
2021/07/27 08:42:37;;;;;;;1.92;1.60;;;;;;;;;;5071224;28;20376;-65
2021/07/27 08:45:04;;;;;;;2.92;1.60;;;;;;;;;;5068787;28;20024;-65
2021/07/27 08:47:30;;;;;;;1.85;1.75;;;;;;;;;;5072097;28;20024;-65
2021/07/27 08:49:55;;;;;;;2.28;1.80;;;;;;;;;;5071484;28;20046;-67
2021/07/27 08:52:21;;;;;;;2.22;1.75;;;;;;;;;;5071112;28;20534;-65
2021/07/27 08:54:47;;;;;;;1.55;1.42;;;;;;;;;;5068242;28;20035;-64
2021/07/27 08:57:14;;;;;;;2.15;1.70;;;;;;;;;;5071312;28;20045;-64
2021/07/27 08:59:39;;;;;;;3.38;1.75;;;;;;;;;;5064518;28;20095;-65
2021/07/27 09:02:04;;;;;;;2.35;1.58;;;;;;;;;;5071238;28;20429;-64
2021/07/27 09:04:30;;;;;;;2.97;2.03;;;;;;;;;;5068827;28;20035;-64
2021/07/27 09:06:58;;;;;;;2.00;1.77;;;;;;;;;;5071671;28;20020;-64
2021/07/27 09:09:27;;;;;;;2.33;1.42;;;;;;;;;;5070999;28;20027;-63
2021/07/27 09:11:52;;;;;;;3.00;1.55;;;;;;;;;;5069944;28;20012;-65
2021/07/27 09:14:22;;;;;;;2.90;1.90;;;;;;;;;;5068706;28;20032;-63
2021/07/27 09:16:49;;;;;;;2.00;1.10;;;;;;;;;;5071778;28;20301;-64
2021/07/27 09:19:15;;;;;;;2.00;1.40;;;;;;;;;;5059428;28;20021;-63
2021/07/27 09:21:42;;;;;;;2.10;1.52;;;;;;;;;;5071324;28;20024;-63
2021/07/27 09:24:07;;;;;;;2.28;1.88;;;;;;;;;;5054541;28;20031;-63
2021/07/27 09:26:33;;;;;;;2.53;1.70;;;;;;;;;;5057264;28;20091;-62
2021/07/27 09:29:02;;;;;;;3.28;1.85;;;;;;;;;;5070653;28;20061;-63
2021/07/27 09:31:27;;;;;;;3.30;2.10;;;;;;;;;;5070975;28;20032;-63
2021/07/27 09:33:53;;;;;;;1.73;1.60;;;;;;;;;;5068572;28;20020;-63
2021/07/27 09:36:22;;;;;;;1.75;1.20;;;;;;;;;;5075156;28;20363;-64
2021/07/27 09:38:57;;;;;;;2.03;1.90;;;;;;;;;;5075053;28;20060;-62
2021/07/27 09:41:26;;;;;;;2.13;1.30;;;;;;;;;;5074692;28;20021;-61
2021/07/27 09:43:52;;;;;;;4.38;1.30;;;;;;;;;;5072227;28;20031;-62
2021/07/27 09:46:17;;;;;;;3.13;1.40;;;;;;;;;;5075643;28;20020;-62
2021/07/27 09:48:43;;;;;;;2.60;1.30;;;;;;;;;;5075012;28;20263;-62
2021/07/27 09:51:09;;;;;;;2.13;1.67;;;;;;;;;;5074406;28;20025;-62
2021/07/27 09:53:34;;;;;;;7.13;3.33;;;;;;;;;;5072152;28;20095;-60
2021/07/27 09:56:01;;;;;;;2.83;1.10;;;;;;;;;;5074806;28;20035;-62
2021/07/27 09:58:28;;;;;;;1.75;1.25;;;;;;;;;;5073105;28;20052;-61
2021/07/27 10:00:55;;;;;;;2.47;1.65;;;;;;;;;;5073972;28;20016;-61
2021/07/27 10:03:40;;;;;;;1.27;0.90;;;;;;;;;;5067070;28;20229;-62
2021/07/27 10:06:06;;;;;;;2.80;1.50;;;;;;;;;;5049322;28;20037;-62
2021/07/27 10:08:36;;;;;;;1.52;1.33;;;;;;;;;;5069283;28;20360;-62
2021/07/27 10:11:11;;;;;;;1.73;1.25;;;;;;;;;;5074960;28;20099;-62
2021/07/27 10:13:48;;;;;;;2.28;1.60;;;;;;;;;;5066228;28;20313;-61
2021/07/27 10:16:21;;;;;;;1.50;1.40;;;;;;;;;;5073900;28;20071;-61
2021/07/27 10:18:47;;;;;;;1.55;1.27;;;;;;;;;;5086537;28;20055;-62
2021/07/27 10:21:17;;;;;;;1.58;1.48;;;;;;;;;;5069832;28;20048;-62
2021/07/27 10:23:43;;;;;;;2.42;1.25;;;;;;;;;;5061120;28;20012;-62
2021/07/27 10:26:08;;;;;;;1.83;1.50;;;;;;;;;;5074024;28;20035;-61
2021/07/27 10:28:33;;;;;;;1.38;1.25;;;;;;;;;;5073028;28;20027;-62
2021/07/27 10:31:06;;;;;;;2.33;1.40;;;;;;;;;;5070237;28;20098;-62
2021/07/27 10:33:31;;;;;;;1.77;1.50;;;;;;;;;;5070501;28;20789;-62
2021/07/27 10:35:57;;;;;;;1.73;1.02;;;;;;;;;;5069450;28;20035;-61
2021/07/27 10:38:22;;;;;;;2.13;1.40;;;;;;;;;;5072906;28;20453;-62
2021/07/27 10:40:49;;;;;;;1.90;1.60;;;;;;;;;;5073779;28;20025;-62
2021/07/27 10:43:25;;;;;;;2.08;1.50;;;;;;;;;;5072711;28;20016;-62
2021/07/27 10:45:59;;;;;;;2.00;1.20;;;;;;;;;;5066271;28;20489;-62
2021/07/27 10:48:34;;;;;;;2.72;1.40;;;;;;;;;;5073832;28;20565;-61
2021/07/27 10:51:00;;;;;;;2.45;1.50;;;;;;;;;;5074217;28;20060;-62
2021/07/27 10:53:28;;;;;;;1.75;1.38;;;;;;;;;;5076354;28;20319;-62
2021/07/27 10:55:53;;;;;;;3.35;1.50;;;;;;;;;;5073660;28;20024;-61
2021/07/27 10:58:19;;;;;;;0.98;0.98;;;;;;;;;;5054343;28;20043;-62
2021/07/27 11:00:44;;;;;;;2.25;1.40;;;;;;;;;;5058732;28;20013;-63
2021/07/27 11:03:09;;;;;;;1.17;0.87;;;;;;;;;;5073011;28;20020;-60
2021/07/27 11:05:36;;;;;;;1.75;1.27;;;;;;;;;;5074561;28;20258;-61
2021/07/27 11:08:01;;;;;;;2.67;1.30;;;;;;;;;;5066792;28;20036;-62
2021/07/27 11:10:27;;;;;;;3.10;1.30;;;;;;;;;;5073486;28;20492;-62
2021/07/27 11:12:53;;;;;;;1.20;1.10;;;;;;;;;;5066125;28;20029;-62
2021/07/27 11:15:21;;;;;;;1.17;1.08;;;;;;;;;;5070724;28;20139;-62
2021/07/27 11:17:47;;;;;;;1.98;1.10;;;;;;;;;;5072697;28;20028;-62
2021/07/27 11:20:20;;;;;;;2.03;1.00;;;;;;;;;;5073497;28;20020;-62
2021/07/27 11:22:47;;;;;;;1.67;1.50;;;;;;;;;;5073785;28;20254;-62
2021/07/27 11:25:15;;;;;;;4.55;1.60;;;;;;;;;;5069314;28;20016;-62
2021/07/27 11:27:41;;;;;;;2.60;1.23;;;;;;;;;;5073049;28;20029;-62
2021/07/27 11:30:09;;;;;;;2.67;1.30;;;;;;;;;;5073289;28;20029;-62
2021/07/27 11:32:37;;;;;;;1.65;1.38;;;;;;;;;;5072634;28;20266;-62
2021/07/27 11:35:03;;;;;;;1.50;1.40;;;;;;;;;;5069164;28;20032;-61
2021/07/27 11:37:28;;;;;;;2.65;1.40;;;;;;;;;;5072146;28;20482;-63
2021/07/27 11:39:55;;;;;;;3.20;1.47;;;;;;;;;;5073021;28;20021;-62
2021/07/27 11:42:30;;;;;;;2.53;1.52;;;;;;;;;;5052885;28;20310;-62
2021/07/27 11:44:57;;;;;;;1.67;1.45;;;;;;;;;;5064233;28;20103;-62
2021/07/27 11:47:23;;;;;;;1.65;1.55;;;;;;;;;;5055553;28;20111;-62
2021/07/27 11:49:55;;;;;;;1.63;1.25;;;;;;;;;;5072793;28;20520;-63
2021/07/27 11:52:27;;;;;;;1.45;1.35;;;;;;;;;;5072705;28;20244;-62
2021/07/27 11:55:03;;;;;;;2.15;1.20;;;;;;;;;;5061827;28;20025;-62
2021/07/27 11:57:28;;;;;;;1.60;1.50;;;;;;;;;;5070637;28;20045;-62
2021/07/27 12:00:13;;;;;;;2.13;1.73;;;;;;;;;;5072676;28;20073;-61
2021/07/27 12:02:39;;;;;;;1.63;1.52;;;;;;;;;;5067264;28;20036;-62
2021/07/27 12:05:05;;;;;;;2.50;1.67;;;;;;;;;;5069150;28;20074;-60
2021/07/27 12:07:31;;;;;;;3.05;1.70;;;;;;;;;;5071479;28;20300;-60
2021/07/27 12:09:56;;;;;;;6.28;1.25;;;;;;;;;;5073231;28;20024;-61
2021/07/27 12:12:21;;;;;;;3.67;1.40;;;;;;;;;;5071582;28;20486;-61
2021/07/27 12:14:46;;;;;;;2.37;1.60;;;;;;;;;;5068907;28;20621;-60
2021/07/27 12:17:12;;;;;;;1.77;1.20;;;;;;;;;;5070925;28;20420;-60
2021/07/27 12:19:37;;;;;;;2.00;1.37;;;;;;;;;;5071697;28;20479;-61
2021/07/27 12:22:02;;;;;;;2.35;1.40;;;;;;;;;;5072079;28;20028;-60
2021/07/27 12:24:27;;;;;;;1.33;1.23;;;;;;;;;;5068068;28;20444;-60
2021/07/27 12:26:53;;;;;;;2.22;1.40;;;;;;;;;;5072896;28;20251;-60
2021/07/27 12:29:18;;;;;;;2.53;1.30;;;;;;;;;;5063951;28;20529;-60
2021/07/27 12:31:43;;;;;;;2.10;1.30;;;;;;;;;;5063081;28;20134;-60
2021/07/27 12:34:08;;;;;;;1.58;1.48;;;;;;;;;;5068629;28;20093;-61
2021/07/27 12:36:34;;;;;;;1.33;1.23;;;;;;;;;;5072367;28;20020;-63
2021/07/27 12:38:59;;;;;;;2.28;1.77;;;;;;;;;;5066120;28;20035;-62
2021/07/27 12:41:25;;;;;;;1.63;1.10;;;;;;;;;;5071544;28;20024;-61
2021/07/27 12:43:50;;;;;;;1.08;1.08;;;;;;;;;;5063067;28;20726;-62
2021/07/27 12:46:17;;;;;;;2.07;1.47;;;;;;;;;;5066861;28;20027;-62
2021/07/27 12:48:42;;;;;;;2.78;1.63;;;;;;;;;;5072444;28;20439;-62
2021/07/27 12:51:08;;;;;;;2.20;1.33;;;;;;;;;;5071653;28;20059;-62
2021/07/27 12:53:33;;;;;;;1.35;1.25;;;;;;;;;;5068612;28;20277;-62
2021/07/27 12:55:59;;;;;;;3.55;1.65;;;;;;;;;;5071264;28;20016;-62
2021/07/27 12:58:24;;;;;;;2.42;1.63;;;;;;;;;;5071619;28;20054;-62
2021/07/27 13:00:49;;;;;;;1.60;1.10;;;;;;;;;;5071377;28;20021;-62
2021/07/27 13:03:18;;;;;;;1.67;1.58;;;;;;;;;;5066110;28;20375;-62
2021/07/27 13:05:43;;;;;;;1.83;1.60;;;;;;;;;;5071655;28;20021;-62
2021/07/27 13:08:08;;;;;;;2.90;1.50;;;;;;;;;;5063864;28;20036;-62
2021/07/27 13:10:33;;;;;;;1.93;1.70;;;;;;;;;;5057088;28;20056;-61
2021/07/27 13:12:59;;;;;;;1.50;1.40;;;;;;;;;;5064472;28;20282;-63
2021/07/27 13:15:24;;;;;;;2.27;1.60;;;;;;;;;;5064475;28;20270;-62
2021/07/27 13:17:49;;;;;;;1.97;1.60;;;;;;;;;;5072004;28;20016;-62
2021/07/27 13:20:15;;;;;;;1.92;1.35;;;;;;;;;;5071069;28;20420;-62
2021/07/27 13:22:40;;;;;;;1.77;1.38;;;;;;;;;;5062396;28;20163;-62
2021/07/27 13:25:05;;;;;;;2.17;1.50;;;;;;;;;;5066208;28;20020;-63
2021/07/27 13:27:30;;;;;;;2.25;1.60;;;;;;;;;;5067118;28;20028;-62
2021/07/27 13:29:56;;;;;;;1.70;1.60;;;;;;;;;;5070790;28;20020;-63
2021/07/27 13:32:21;;;;;;;1.60;1.30;;;;;;;;;;5067965;28;20386;-63
2021/07/27 13:34:46;;;;;;;3.07;1.07;;;;;;;;;;5067873;28;20258;-62
2021/07/27 13:37:11;;;;;;;2.93;1.63;;;;;;;;;;5070989;28;20267;-62
2021/07/27 13:39:37;;;;;;;2.10;1.20;;;;;;;;;;5064484;28;20067;-62
2021/07/27 13:42:02;;;;;;;2.85;0.68;;;;;;;;;;5068854;28;20285;-62
2021/07/27 13:44:27;;;;;;;1.58;1.08;;;;;;;;;;5068137;28;20387;-62
2021/07/27 13:46:53;;;;;;;1.73;1.20;;;;;;;;;;5071430;28;20095;-61
2021/07/27 13:49:18;;;;;;;1.90;1.10;;;;;;;;;;5070196;28;20067;-63
2021/07/27 13:51:43;;;;;;;2.70;1.30;;;;;;;;;;5066658;28;20021;-62
2021/07/27 13:54:08;;;;;;;1.50;1.15;;;;;;;;;;5068240;28;20472;-63
2021/07/27 13:56:33;;;;;;;1.60;1.50;;;;;;;;;;5071041;28;20120;-62
2021/07/27 13:58:59;;;;;;;1.67;1.30;;;;;;;;;;5071393;28;20017;-63
2021/07/27 14:01:24;;;;;;;1.27;1.17;;;;;;;;;;5061137;28;20095;-63
2021/07/27 14:03:49;;;;;;;2.13;1.30;;;;;;;;;;5062434;28;20020;-62
2021/07/27 14:06:14;;;;;;;1.37;1.27;;;;;;;;;;5070587;28;20027;-61
2021/07/27 14:08:40;;;;;;;2.28;1.38;;;;;;;;;;5070333;28;20275;-62
2021/07/27 14:11:05;;;;;;;2.08;1.70;;;;;;;;;;5070220;28;20024;-62
2021/07/27 14:13:30;;;;;;;1.60;1.50;;;;;;;;;;5068355;28;20566;-62
2021/07/27 14:15:58;;;;;;;3.43;1.27;;;;;;;;;;5063404;28;20270;-62
2021/07/27 14:18:24;;;;;;;1.55;1.30;;;;;;;;;;5071003;28;20486;-61
2021/07/27 14:20:49;;;;;;;1.52;1.27;;;;;;;;;;5070740;28;20020;-62
2021/07/27 14:23:14;;;;;;;1.70;1.60;;;;;;;;;;5072242;28;20020;-62
2021/07/27 14:25:39;;;;;;;4.27;1.30;;;;;;;;;;5074224;28;20406;-62
2021/07/27 14:28:05;;;;;;;1.55;1.45;;;;;;;;;;5074532;28;20055;-62
2021/07/27 14:30:30;;;;;;;2.75;1.20;;;;;;;;;;5057812;28;20029;-62
2021/07/27 14:32:55;;;;;;;1.60;1.47;;;;;;;;;;5068658;28;20153;-62
2021/07/27 14:35:20;;;;;;;2.27;1.50;;;;;;;;;;5070357;28;20675;-62
2021/07/27 14:37:47;;;;;;;1.40;1.30;;;;;;;;;;5074836;28;20024;-62
2021/07/27 14:40:12;;;;;;;5.07;1.70;;;;;;;;;;5074460;28;20263;-61
2021/07/27 14:42:37;;;;;;;2.03;1.60;;;;;;;;;;5073662;28;20074;-62
2021/07/27 14:45:03;;;;;;;2.60;1.53;;;;;;;;;;5066500;28;20025;-62
2021/07/27 14:47:28;;;;;;;2.00;1.50;;;;;;;;;;5054555;28;20346;-62
2021/07/27 14:49:53;;;;;;;2.70;1.63;;;;;;;;;;5070477;28;20016;-61
2021/07/27 14:52:19;;;;;;;2.33;1.47;;;;;;;;;;5074166;28;20387;-62
2021/07/27 14:54:44;;;;;;;1.93;1.73;;;;;;;;;;5064114;28;20754;-62
2021/07/27 14:57:10;;;;;;;1.80;1.60;;;;;;;;;;5053727;28;20303;-61
2021/07/27 14:59:35;;;;;;;2.47;1.20;;;;;;;;;;5066000;28;20104;-63
2021/07/27 15:02:00;;;;;;;3.83;1.33;;;;;;;;;;5074239;28;20025;-62